sensor_id;sensor_type;location;lat;lon;timestamp;P1;durP1;ratioP1;P2;durP2;ratioP2
20008;SDS011;10165;42.662;23.260;2023-08-24T00:00:21;8.10;;;7.23;;
20008;SDS011;10165;42.662;23.260;2023-08-24T00:02:48;13.07;;;7.40;;
20008;SDS011;10165;42.662;23.260;2023-08-24T00:05:15;8.80;;;7.23;;
20008;SDS011;10165;42.662;23.260;2023-08-24T00:07:42;9.10;;;7.50;;
20008;SDS011;10165;42.662;23.260;2023-08-24T00:10:09;8.37;;;6.87;;
20008;SDS011;10165;42.662;23.260;2023-08-24T00:12:36;9.33;;;7.43;;
20008;SDS011;10165;42.662;23.260;2023-08-24T00:15:03;9.60;;;7.60;;
20008;SDS011;10165;42.662;23.260;2023-08-24T00:17:30;8.03;;;7.23;;
20008;SDS011;10165;42.662;23.260;2023-08-24T00:19:57;9.90;;;7.33;;
20008;SDS011;10165;42.662;23.260;2023-08-24T00:22:24;8.27;;;7.00;;
20008;SDS011;10165;42.662;23.260;2023-08-24T00:24:50;9.43;;;7.33;;
20008;SDS011;10165;42.662;23.260;2023-08-24T00:27:17;8.13;;;7.33;;
20008;SDS011;10165;42.662;23.260;2023-08-24T00:29:44;8.63;;;7.40;;
20008;SDS011;10165;42.662;23.260;2023-08-24T00:32:11;8.77;;;7.50;;
20008;SDS011;10165;42.662;23.260;2023-08-24T00:34:38;7.30;;;6.60;;
20008;SDS011;10165;42.662;23.260;2023-08-24T00:37:04;8.63;;;7.37;;
20008;SDS011;10165;42.662;23.260;2023-08-24T00:39:31;9.93;;;7.40;;
20008;SDS011;10165;42.662;23.260;2023-08-24T00:41:58;8.77;;;7.63;;
20008;SDS011;10165;42.662;23.260;2023-08-24T00:44:25;8.53;;;7.20;;
20008;SDS011;10165;42.662;23.260;2023-08-24T00:46:52;9.27;;;7.50;;
20008;SDS011;10165;42.662;23.260;2023-08-24T00:49:19;9.73;;;7.50;;
20008;SDS011;10165;42.662;23.260;2023-08-24T00:51:47;10.47;;;7.33;;
20008;SDS011;10165;42.662;23.260;2023-08-24T00:54:14;10.57;;;7.30;;
20008;SDS011;10165;42.662;23.260;2023-08-24T00:56:42;9.07;;;7.53;;
20008;SDS011;10165;42.662;23.260;2023-08-24T00:59:08;8.33;;;7.20;;
20008;SDS011;10165;42.662;23.260;2023-08-24T01:01:35;9.23;;;7.87;;
20008;SDS011;10165;42.662;23.260;2023-08-24T01:04:02;9.70;;;8.20;;
20008;SDS011;10165;42.662;23.260;2023-08-24T01:06:29;12.80;;;8.63;;
20008;SDS011;10165;42.662;23.260;2023-08-24T01:08:56;10.40;;;7.53;;
20008;SDS011;10165;42.662;23.260;2023-08-24T01:14:21;9.03;;;6.97;;
20008;SDS011;10165;42.662;23.260;2023-08-24T01:16:58;10.40;;;7.37;;
20008;SDS011;10165;42.662;23.260;2023-08-24T01:22:03;13.53;;;8.10;;
20008;SDS011;10165;42.662;23.260;2023-08-24T01:24:43;9.33;;;7.27;;
20008;SDS011;10165;42.662;23.260;2023-08-24T01:27:13;9.33;;;7.60;;
20008;SDS011;10165;42.662;23.260;2023-08-24T01:29:41;9.90;;;7.97;;
20008;SDS011;10165;42.662;23.260;2023-08-24T01:32:11;12.23;;;8.67;;
20008;SDS011;10165;42.662;23.260;2023-08-24T01:34:38;8.33;;;7.37;;
20008;SDS011;10165;42.662;23.260;2023-08-24T01:37:08;14.53;;;7.63;;
20008;SDS011;10165;42.662;23.260;2023-08-24T01:39:38;10.87;;;7.57;;
20008;SDS011;10165;42.662;23.260;2023-08-24T01:42:07;11.33;;;7.53;;
20008;SDS011;10165;42.662;23.260;2023-08-24T01:44:43;11.60;;;7.83;;
20008;SDS011;10165;42.662;23.260;2023-08-24T01:47:15;9.40;;;7.17;;
20008;SDS011;10165;42.662;23.260;2023-08-24T01:49:44;10.17;;;7.63;;
20008;SDS011;10165;42.662;23.260;2023-08-24T01:52:11;13.20;;;7.30;;
20008;SDS011;10165;42.662;23.260;2023-08-24T01:54:39;9.77;;;8.00;;
20008;SDS011;10165;42.662;23.260;2023-08-24T01:57:05;8.57;;;7.73;;
20008;SDS011;10165;42.662;23.260;2023-08-24T01:59:33;10.03;;;7.17;;
20008;SDS011;10165;42.662;23.260;2023-08-24T02:01:59;9.83;;;7.40;;
20008;SDS011;10165;42.662;23.260;2023-08-24T02:04:27;16.20;;;7.57;;
20008;SDS011;10165;42.662;23.260;2023-08-24T02:06:54;9.27;;;7.43;;
20008;SDS011;10165;42.662;23.260;2023-08-24T02:09:21;10.03;;;7.93;;
20008;SDS011;10165;42.662;23.260;2023-08-24T02:11:47;15.33;;;8.27;;
20008;SDS011;10165;42.662;23.260;2023-08-24T02:14:14;8.97;;;7.70;;
20008;SDS011;10165;42.662;23.260;2023-08-24T02:16:41;9.37;;;6.90;;
20008;SDS011;10165;42.662;23.260;2023-08-24T02:19:08;9.00;;;7.33;;
20008;SDS011;10165;42.662;23.260;2023-08-24T02:21:35;19.50;;;8.17;;
20008;SDS011;10165;42.662;23.260;2023-08-24T02:24:04;9.57;;;8.27;;
20008;SDS011;10165;42.662;23.260;2023-08-24T02:26:31;9.50;;;7.87;;
20008;SDS011;10165;42.662;23.260;2023-08-24T02:28:57;12.13;;;9.07;;
20008;SDS011;10165;42.662;23.260;2023-08-24T02:31:25;10.97;;;7.37;;
20008;SDS011;10165;42.662;23.260;2023-08-24T02:33:52;11.20;;;7.33;;
20008;SDS011;10165;42.662;23.260;2023-08-24T02:36:18;12.13;;;7.53;;
20008;SDS011;10165;42.662;23.260;2023-08-24T02:38:46;11.50;;;8.37;;
20008;SDS011;10165;42.662;23.260;2023-08-24T02:41:13;10.80;;;8.20;;
20008;SDS011;10165;42.662;23.260;2023-08-24T02:43:40;9.90;;;7.67;;
20008;SDS011;10165;42.662;23.260;2023-08-24T02:46:09;14.50;;;7.50;;
20008;SDS011;10165;42.662;23.260;2023-08-24T02:48:36;9.07;;;7.57;;
20008;SDS011;10165;42.662;23.260;2023-08-24T02:51:04;10.00;;;8.30;;
20008;SDS011;10165;42.662;23.260;2023-08-24T02:53:31;9.13;;;7.33;;
20008;SDS011;10165;42.662;23.260;2023-08-24T02:55:58;12.73;;;8.33;;
20008;SDS011;10165;42.662;23.260;2023-08-24T02:58:25;9.57;;;7.70;;
20008;SDS011;10165;42.662;23.260;2023-08-24T03:00:53;11.90;;;7.97;;
20008;SDS011;10165;42.662;23.260;2023-08-24T03:03:20;9.00;;;7.40;;
20008;SDS011;10165;42.662;23.260;2023-08-24T03:05:56;14.23;;;7.97;;
20008;SDS011;10165;42.662;23.260;2023-08-24T03:08:25;9.93;;;7.77;;
20008;SDS011;10165;42.662;23.260;2023-08-24T03:10:52;9.90;;;7.80;;
20008;SDS011;10165;42.662;23.260;2023-08-24T03:13:19;10.77;;;8.57;;
20008;SDS011;10165;42.662;23.260;2023-08-24T03:15:46;12.37;;;9.00;;
20008;SDS011;10165;42.662;23.260;2023-08-24T03:18:13;14.77;;;8.33;;
20008;SDS011;10165;42.662;23.260;2023-08-24T03:20:43;12.33;;;7.83;;
20008;SDS011;10165;42.662;23.260;2023-08-24T03:23:10;9.90;;;7.90;;
20008;SDS011;10165;42.662;23.260;2023-08-24T03:25:38;9.90;;;7.90;;
20008;SDS011;10165;42.662;23.260;2023-08-24T03:28:06;11.23;;;8.90;;
20008;SDS011;10165;42.662;23.260;2023-08-24T03:30:38;14.00;;;8.83;;
20008;SDS011;10165;42.662;23.260;2023-08-24T03:33:12;16.67;;;9.77;;
20008;SDS011;10165;42.662;23.260;2023-08-24T03:35:39;13.70;;;9.17;;
20008;SDS011;10165;42.662;23.260;2023-08-24T03:38:05;10.40;;;9.07;;
20008;SDS011;10165;42.662;23.260;2023-08-24T03:40:32;14.03;;;9.67;;
20008;SDS011;10165;42.662;23.260;2023-08-24T03:43:00;12.40;;;10.17;;
20008;SDS011;10165;42.662;23.260;2023-08-24T03:45:27;20.33;;;11.67;;
20008;SDS011;10165;42.662;23.260;2023-08-24T03:47:54;19.87;;;12.03;;
20008;SDS011;10165;42.662;23.260;2023-08-24T03:50:21;19.30;;;13.43;;
20008;SDS011;10165;42.662;23.260;2023-08-24T03:52:51;17.80;;;13.23;;
20008;SDS011;10165;42.662;23.260;2023-08-24T03:55:21;22.77;;;14.20;;
20008;SDS011;10165;42.662;23.260;2023-08-24T03:57:47;20.63;;;14.57;;
20008;SDS011;10165;42.662;23.260;2023-08-24T04:00:15;21.07;;;15.27;;
20008;SDS011;10165;42.662;23.260;2023-08-24T04:02:43;22.37;;;15.20;;
20008;SDS011;10165;42.662;23.260;2023-08-24T04:05:11;17.70;;;13.63;;
20008;SDS011;10165;42.662;23.260;2023-08-24T04:07:38;23.73;;;13.63;;
20008;SDS011;10165;42.662;23.260;2023-08-24T04:10:06;18.90;;;12.33;;
20008;SDS011;10165;42.662;23.260;2023-08-24T04:12:33;22.80;;;13.90;;
20008;SDS011;10165;42.662;23.260;2023-08-24T04:15:00;17.80;;;12.33;;
20008;SDS011;10165;42.662;23.260;2023-08-24T04:17:27;22.90;;;14.23;;
20008;SDS011;10165;42.662;23.260;2023-08-24T04:19:54;20.00;;;13.80;;
20008;SDS011;10165;42.662;23.260;2023-08-24T04:22:21;18.60;;;13.23;;
20008;SDS011;10165;42.662;23.260;2023-08-24T04:24:48;20.20;;;13.47;;
20008;SDS011;10165;42.662;23.260;2023-08-24T04:27:15;17.57;;;13.47;;
20008;SDS011;10165;42.662;23.260;2023-08-24T04:29:41;20.60;;;13.13;;
20008;SDS011;10165;42.662;23.260;2023-08-24T04:32:09;17.03;;;11.80;;
20008;SDS011;10165;42.662;23.260;2023-08-24T04:34:35;14.50;;;11.90;;
20008;SDS011;10165;42.662;23.260;2023-08-24T04:37:02;15.77;;;11.97;;
20008;SDS011;10165;42.662;23.260;2023-08-24T04:39:29;16.47;;;12.10;;
20008;SDS011;10165;42.662;23.260;2023-08-24T04:41:56;17.30;;;10.90;;
20008;SDS011;10165;42.662;23.260;2023-08-24T04:44:23;24.77;;;12.37;;
20008;SDS011;10165;42.662;23.260;2023-08-24T04:46:53;17.17;;;11.60;;
20008;SDS011;10165;42.662;23.260;2023-08-24T04:49:19;17.57;;;11.70;;
20008;SDS011;10165;42.662;23.260;2023-08-24T04:51:46;24.20;;;11.97;;
20008;SDS011;10165;42.662;23.260;2023-08-24T04:54:13;18.63;;;10.83;;
20008;SDS011;10165;42.662;23.260;2023-08-24T04:56:39;17.70;;;12.07;;
20008;SDS011;10165;42.662;23.260;2023-08-24T04:59:06;17.47;;;12.10;;
20008;SDS011;10165;42.662;23.260;2023-08-24T05:01:34;15.50;;;10.50;;
20008;SDS011;10165;42.662;23.260;2023-08-24T05:04:01;15.90;;;10.77;;
20008;SDS011;10165;42.662;23.260;2023-08-24T05:06:28;16.17;;;10.57;;
20008;SDS011;10165;42.662;23.260;2023-08-24T05:08:55;12.60;;;10.47;;
20008;SDS011;10165;42.662;23.260;2023-08-24T05:11:22;18.43;;;11.10;;
20008;SDS011;10165;42.662;23.260;2023-08-24T05:13:52;17.23;;;10.80;;
20008;SDS011;10165;42.662;23.260;2023-08-24T05:16:18;19.73;;;11.23;;
20008;SDS011;10165;42.662;23.260;2023-08-24T05:18:45;24.63;;;10.57;;
20008;SDS011;10165;42.662;23.260;2023-08-24T05:21:12;13.40;;;10.70;;
20008;SDS011;10165;42.662;23.260;2023-08-24T05:23:39;15.47;;;9.97;;
20008;SDS011;10165;42.662;23.260;2023-08-24T05:26:06;18.43;;;10.27;;
20008;SDS011;10165;42.662;23.260;2023-08-24T05:28:33;19.33;;;9.20;;
20008;SDS011;10165;42.662;23.260;2023-08-24T05:31:00;12.00;;;9.10;;
20008;SDS011;10165;42.662;23.260;2023-08-24T05:33:27;14.67;;;9.97;;
20008;SDS011;10165;42.662;23.260;2023-08-24T05:35:57;25.13;;;11.87;;
20008;SDS011;10165;42.662;23.260;2023-08-24T05:38:25;21.83;;;12.57;;
20008;SDS011;10165;42.662;23.260;2023-08-24T05:40:51;18.20;;;13.33;;
20008;SDS011;10165;42.662;23.260;2023-08-24T05:43:18;17.73;;;12.50;;
20008;SDS011;10165;42.662;23.260;2023-08-24T05:45:45;28.40;;;14.73;;
20008;SDS011;10165;42.662;23.260;2023-08-24T05:48:13;22.53;;;14.03;;
20008;SDS011;10165;42.662;23.260;2023-08-24T05:50:44;27.33;;;16.43;;
20008;SDS011;10165;42.662;23.260;2023-08-24T05:53:11;27.93;;;16.53;;
20008;SDS011;10165;42.662;23.260;2023-08-24T05:55:38;28.70;;;17.07;;
20008;SDS011;10165;42.662;23.260;2023-08-24T05:58:05;30.63;;;16.73;;
20008;SDS011;10165;42.662;23.260;2023-08-24T06:00:32;24.30;;;14.70;;
20008;SDS011;10165;42.662;23.260;2023-08-24T06:02:59;31.07;;;16.80;;
20008;SDS011;10165;42.662;23.260;2023-08-24T06:05:26;26.47;;;16.33;;
20008;SDS011;10165;42.662;23.260;2023-08-24T06:07:53;30.43;;;17.83;;
20008;SDS011;10165;42.662;23.260;2023-08-24T06:10:19;24.87;;;15.10;;
20008;SDS011;10165;42.662;23.260;2023-08-24T06:12:46;19.47;;;12.87;;
20008;SDS011;10165;42.662;23.260;2023-08-24T06:15:13;20.90;;;13.50;;
20008;SDS011;10165;42.662;23.260;2023-08-24T06:17:40;21.33;;;13.60;;
20008;SDS011;10165;42.662;23.260;2023-08-24T06:20:07;21.40;;;14.00;;
20008;SDS011;10165;42.662;23.260;2023-08-24T06:22:37;20.63;;;12.53;;
20008;SDS011;10165;42.662;23.260;2023-08-24T06:25:04;19.53;;;12.80;;
20008;SDS011;10165;42.662;23.260;2023-08-24T06:27:31;18.63;;;12.13;;
20008;SDS011;10165;42.662;23.260;2023-08-24T06:29:58;21.90;;;11.83;;
20008;SDS011;10165;42.662;23.260;2023-08-24T06:32:25;16.80;;;10.60;;
20008;SDS011;10165;42.662;23.260;2023-08-24T06:34:51;16.90;;;10.97;;
20008;SDS011;10165;42.662;23.260;2023-08-24T06:37:18;20.60;;;11.83;;
20008;SDS011;10165;42.662;23.260;2023-08-24T06:39:45;17.90;;;10.97;;
20008;SDS011;10165;42.662;23.260;2023-08-24T06:42:11;12.57;;;10.03;;
20008;SDS011;10165;42.662;23.260;2023-08-24T06:44:38;16.30;;;10.43;;
20008;SDS011;10165;42.662;23.260;2023-08-24T06:47:05;17.60;;;9.63;;
20008;SDS011;10165;42.662;23.260;2023-08-24T06:49:31;18.83;;;10.13;;
20008;SDS011;10165;42.662;23.260;2023-08-24T06:51:58;21.47;;;10.13;;
20008;SDS011;10165;42.662;23.260;2023-08-24T06:54:25;16.07;;;11.03;;
20008;SDS011;10165;42.662;23.260;2023-08-24T06:56:54;16.90;;;10.80;;
20008;SDS011;10165;42.662;23.260;2023-08-24T06:59:21;14.07;;;9.37;;
20008;SDS011;10165;42.662;23.260;2023-08-24T07:01:47;12.63;;;9.27;;
20008;SDS011;10165;42.662;23.260;2023-08-24T07:04:14;13.70;;;9.43;;
20008;SDS011;10165;42.662;23.260;2023-08-24T07:06:41;17.20;;;10.37;;
20008;SDS011;10165;42.662;23.260;2023-08-24T07:09:08;16.17;;;9.30;;
20008;SDS011;10165;42.662;23.260;2023-08-24T07:11:35;11.13;;;8.80;;
20008;SDS011;10165;42.662;23.260;2023-08-24T07:14:02;12.87;;;9.17;;
20008;SDS011;10165;42.662;23.260;2023-08-24T07:16:29;12.77;;;9.10;;
20008;SDS011;10165;42.662;23.260;2023-08-24T07:18:56;14.43;;;9.37;;
20008;SDS011;10165;42.662;23.260;2023-08-24T07:21:22;13.00;;;8.93;;
20008;SDS011;10165;42.662;23.260;2023-08-24T07:23:49;15.37;;;8.97;;
20008;SDS011;10165;42.662;23.260;2023-08-24T07:26:16;13.93;;;9.57;;
20008;SDS011;10165;42.662;23.260;2023-08-24T07:28:42;14.43;;;10.00;;
20008;SDS011;10165;42.662;23.260;2023-08-24T07:31:09;12.83;;;9.97;;
20008;SDS011;10165;42.662;23.260;2023-08-24T07:33:37;15.00;;;9.73;;
20008;SDS011;10165;42.662;23.260;2023-08-24T07:36:05;17.23;;;9.87;;
20008;SDS011;10165;42.662;23.260;2023-08-24T07:38:32;19.20;;;9.97;;
20008;SDS011;10165;42.662;23.260;2023-08-24T07:40:59;13.13;;;9.27;;
20008;SDS011;10165;42.662;23.260;2023-08-24T07:43:25;14.87;;;10.17;;
20008;SDS011;10165;42.662;23.260;2023-08-24T07:45:52;11.50;;;9.17;;
20008;SDS011;10165;42.662;23.260;2023-08-24T07:48:19;14.07;;;9.97;;
20008;SDS011;10165;42.662;23.260;2023-08-24T07:50:46;13.77;;;9.63;;
20008;SDS011;10165;42.662;23.260;2023-08-24T07:53:12;11.77;;;9.80;;
20008;SDS011;10165;42.662;23.260;2023-08-24T07:55:40;11.70;;;9.17;;
20008;SDS011;10165;42.662;23.260;2023-08-24T07:58:08;11.40;;;9.20;;
20008;SDS011;10165;42.662;23.260;2023-08-24T08:00:35;24.53;;;9.80;;
20008;SDS011;10165;42.662;23.260;2023-08-24T08:03:02;14.30;;;9.97;;
20008;SDS011;10165;42.662;23.260;2023-08-24T08:05:29;13.37;;;9.33;;
20008;SDS011;10165;42.662;23.260;2023-08-24T08:07:56;14.00;;;9.38;;
20008;SDS011;10165;42.662;23.260;2023-08-24T08:10:23;13.27;;;10.13;;
20008;SDS011;10165;42.662;23.260;2023-08-24T08:12:50;15.07;;;9.30;;
20008;SDS011;10165;42.662;23.260;2023-08-24T08:15:16;12.10;;;8.60;;
20008;SDS011;10165;42.662;23.260;2023-08-24T08:17:43;13.80;;;8.95;;
20008;SDS011;10165;42.662;23.260;2023-08-24T08:20:10;14.75;;;9.55;;
20008;SDS011;10165;42.662;23.260;2023-08-24T08:22:38;13.02;;;8.70;;
20008;SDS011;10165;42.662;23.260;2023-08-24T08:25:05;11.38;;;8.73;;
20008;SDS011;10165;42.662;23.260;2023-08-24T08:27:33;11.20;;;9.32;;
20008;SDS011;10165;42.662;23.260;2023-08-24T08:30:00;14.23;;;8.00;;
20008;SDS011;10165;42.662;23.260;2023-08-24T08:32:27;14.23;;;8.65;;
20008;SDS011;10165;42.662;23.260;2023-08-24T08:34:54;15.13;;;10.00;;
20008;SDS011;10165;42.662;23.260;2023-08-24T08:37:23;17.17;;;10.10;;
20008;SDS011;10165;42.662;23.260;2023-08-24T08:39:50;11.25;;;9.25;;
20008;SDS011;10165;42.662;23.260;2023-08-24T08:42:17;12.27;;;9.10;;
20008;SDS011;10165;42.662;23.260;2023-08-24T08:44:44;14.18;;;8.48;;
20008;SDS011;10165;42.662;23.260;2023-08-24T08:47:13;13.88;;;8.80;;
20008;SDS011;10165;42.662;23.260;2023-08-24T08:49:44;16.23;;;9.40;;
20008;SDS011;10165;42.662;23.260;2023-08-24T08:52:13;15.48;;;10.50;;
20008;SDS011;10165;42.662;23.260;2023-08-24T08:54:40;12.63;;;10.35;;
20008;SDS011;10165;42.662;23.260;2023-08-24T08:57:07;13.82;;;10.48;;
20008;SDS011;10165;42.662;23.260;2023-08-24T08:59:34;15.10;;;9.68;;
20008;SDS011;10165;42.662;23.260;2023-08-24T09:02:02;14.85;;;10.35;;
20008;SDS011;10165;42.662;23.260;2023-08-24T09:04:33;15.70;;;10.80;;
20008;SDS011;10165;42.662;23.260;2023-08-24T09:07:00;14.20;;;10.98;;
20008;SDS011;10165;42.662;23.260;2023-08-24T09:09:30;14.63;;;11.15;;
20008;SDS011;10165;42.662;23.260;2023-08-24T09:11:58;14.43;;;9.23;;
20008;SDS011;10165;42.662;23.260;2023-08-24T09:14:25;12.57;;;10.30;;
20008;SDS011;10165;42.662;23.260;2023-08-24T09:16:52;16.65;;;9.68;;
20008;SDS011;10165;42.662;23.260;2023-08-24T09:19:19;12.80;;;9.98;;
20008;SDS011;10165;42.662;23.260;2023-08-24T09:21:57;12.43;;;10.02;;
20008;SDS011;10165;42.662;23.260;2023-08-24T09:24:31;13.55;;;10.52;;
20008;SDS011;10165;42.662;23.260;2023-08-24T09:26:59;12.85;;;10.00;;
20008;SDS011;10165;42.662;23.260;2023-08-24T09:29:27;11.50;;;10.15;;
20008;SDS011;10165;42.662;23.260;2023-08-24T09:32:02;15.82;;;9.82;;
20008;SDS011;10165;42.662;23.260;2023-08-24T09:34:32;12.73;;;10.88;;
20008;SDS011;10165;42.662;23.260;2023-08-24T09:36:59;12.63;;;11.10;;
20008;SDS011;10165;42.662;23.260;2023-08-24T09:39:26;16.13;;;10.07;;
20008;SDS011;10165;42.662;23.260;2023-08-24T09:41:53;12.35;;;10.02;;
20008;SDS011;10165;42.662;23.260;2023-08-24T09:44:19;13.82;;;10.73;;
20008;SDS011;10165;42.662;23.260;2023-08-24T09:46:46;14.60;;;10.20;;
20008;SDS011;10165;42.662;23.260;2023-08-24T09:49:13;13.27;;;9.90;;
20008;SDS011;10165;42.662;23.260;2023-08-24T09:51:40;15.25;;;9.45;;
20008;SDS011;10165;42.662;23.260;2023-08-24T09:54:08;14.30;;;10.65;;
20008;SDS011;10165;42.662;23.260;2023-08-24T09:56:39;16.88;;;9.65;;
20008;SDS011;10165;42.662;23.260;2023-08-24T10:01:41;11.80;;;10.05;;
20008;SDS011;10165;42.662;23.260;2023-08-24T10:04:17;14.63;;;9.82;;
20008;SDS011;10165;42.662;23.260;2023-08-24T10:07:08;14.27;;;9.15;;
20008;SDS011;10165;42.662;23.260;2023-08-24T10:12:15;11.82;;;9.98;;
20008;SDS011;10165;42.662;23.260;2023-08-24T10:17:27;14.10;;;9.18;;
20008;SDS011;10165;42.662;23.260;2023-08-24T10:19:54;10.75;;;9.65;;
20008;SDS011;10165;42.662;23.260;2023-08-24T10:22:23;13.50;;;9.80;;
20008;SDS011;10165;42.662;23.260;2023-08-24T10:24:50;12.10;;;9.75;;
20008;SDS011;10165;42.662;23.260;2023-08-24T10:27:20;13.93;;;9.55;;
20008;SDS011;10165;42.662;23.260;2023-08-24T10:29:49;15.27;;;9.73;;
20008;SDS011;10165;42.662;23.260;2023-08-24T10:32:15;12.35;;;9.23;;
20008;SDS011;10165;42.662;23.260;2023-08-24T10:34:43;13.95;;;9.80;;
20008;SDS011;10165;42.662;23.260;2023-08-24T10:37:10;10.77;;;9.50;;
20008;SDS011;10165;42.662;23.260;2023-08-24T10:39:38;11.20;;;8.93;;
20008;SDS011;10165;42.662;23.260;2023-08-24T10:42:11;14.98;;;9.55;;
20008;SDS011;10165;42.662;23.260;2023-08-24T10:44:39;10.02;;;8.35;;
20008;SDS011;10165;42.662;23.260;2023-08-24T10:49:40;20.52;;;8.48;;
20008;SDS011;10165;42.662;23.260;2023-08-24T10:54:52;9.88;;;8.88;;
20008;SDS011;10165;42.662;23.260;2023-08-24T10:57:21;15.43;;;9.45;;
20008;SDS011;10165;42.662;23.260;2023-08-24T11:00:12;15.82;;;8.45;;
20008;SDS011;10165;42.662;23.260;2023-08-24T11:10:24;13.00;;;9.75;;
20008;SDS011;10165;42.662;23.260;2023-08-24T11:13:05;12.52;;;9.60;;
20008;SDS011;10165;42.662;23.260;2023-08-24T11:15:37;17.75;;;9.63;;
20008;SDS011;10165;42.662;23.260;2023-08-24T11:18:11;8.27;;;7.43;;
20008;SDS011;10165;42.662;23.260;2023-08-24T11:20:47;11.93;;;8.27;;
20008;SDS011;10165;42.662;23.260;2023-08-24T11:23:15;8.82;;;6.97;;
20008;SDS011;10165;42.662;23.260;2023-08-24T11:25:43;8.20;;;6.38;;
20008;SDS011;10165;42.662;23.260;2023-08-24T11:28:16;8.30;;;7.50;;
20008;SDS011;10165;42.662;23.260;2023-08-24T11:30:47;10.05;;;6.40;;
20008;SDS011;10165;42.662;23.260;2023-08-24T11:33:14;12.68;;;6.88;;
20008;SDS011;10165;42.662;23.260;2023-08-24T11:35:42;7.70;;;6.20;;
20008;SDS011;10165;42.662;23.260;2023-08-24T11:38:12;11.32;;;6.60;;
20008;SDS011;10165;42.662;23.260;2023-08-24T11:40:39;8.02;;;6.95;;
20008;SDS011;10165;42.662;23.260;2023-08-24T11:43:06;8.65;;;6.45;;
20008;SDS011;10165;42.662;23.260;2023-08-24T11:45:33;8.35;;;6.65;;
20008;SDS011;10165;42.662;23.260;2023-08-24T11:48:07;10.63;;;6.57;;
20008;SDS011;10165;42.662;23.260;2023-08-24T11:50:34;10.07;;;6.90;;
20008;SDS011;10165;42.662;23.260;2023-08-24T11:53:06;9.15;;;7.35;;
20008;SDS011;10165;42.662;23.260;2023-08-24T11:55:33;9.43;;;6.80;;
20008;SDS011;10165;42.662;23.260;2023-08-24T11:58:00;10.48;;;7.63;;
20008;SDS011;10165;42.662;23.260;2023-08-24T12:00:27;12.73;;;7.38;;
20008;SDS011;10165;42.662;23.260;2023-08-24T12:02:54;9.20;;;7.00;;
20008;SDS011;10165;42.662;23.260;2023-08-24T12:05:25;11.88;;;7.55;;
20008;SDS011;10165;42.662;23.260;2023-08-24T12:07:53;8.90;;;7.22;;
20008;SDS011;10165;42.662;23.260;2023-08-24T12:10:21;14.32;;;7.07;;
20008;SDS011;10165;42.662;23.260;2023-08-24T12:12:48;10.02;;;7.32;;
20008;SDS011;10165;42.662;23.260;2023-08-24T12:15:18;7.65;;;6.93;;
20008;SDS011;10165;42.662;23.260;2023-08-24T12:17:48;8.98;;;7.15;;
20008;SDS011;10165;42.662;23.260;2023-08-24T12:20:17;10.10;;;7.32;;
20008;SDS011;10165;42.662;23.260;2023-08-24T12:22:52;8.32;;;7.32;;
20008;SDS011;10165;42.662;23.260;2023-08-24T12:25:23;8.93;;;7.60;;
20008;SDS011;10165;42.662;23.260;2023-08-24T12:27:51;11.88;;;7.80;;
20008;SDS011;10165;42.662;23.260;2023-08-24T12:30:21;10.05;;;7.40;;
20008;SDS011;10165;42.662;23.260;2023-08-24T12:32:48;9.52;;;7.45;;
20008;SDS011;10165;42.662;23.260;2023-08-24T12:35:17;9.82;;;7.88;;
20008;SDS011;10165;42.662;23.260;2023-08-24T12:37:44;9.48;;;7.18;;
20008;SDS011;10165;42.662;23.260;2023-08-24T12:40:12;9.18;;;7.47;;
20008;SDS011;10165;42.662;23.260;2023-08-24T12:42:39;13.43;;;7.57;;
20008;SDS011;10165;42.662;23.260;2023-08-24T12:45:06;10.98;;;6.95;;
20008;SDS011;10165;42.662;23.260;2023-08-24T12:47:33;25.80;;;8.45;;
20008;SDS011;10165;42.662;23.260;2023-08-24T12:50:04;13.38;;;7.45;;
20008;SDS011;10165;42.662;23.260;2023-08-24T12:52:32;14.85;;;8.00;;
20008;SDS011;10165;42.662;23.260;2023-08-24T12:54:59;12.50;;;7.50;;
20008;SDS011;10165;42.662;23.260;2023-08-24T12:57:25;9.73;;;7.70;;
20008;SDS011;10165;42.662;23.260;2023-08-24T12:59:52;7.95;;;6.82;;
20008;SDS011;10165;42.662;23.260;2023-08-24T13:02:21;8.57;;;7.40;;
20008;SDS011;10165;42.662;23.260;2023-08-24T13:04:58;11.32;;;7.18;;
20008;SDS011;10165;42.662;23.260;2023-08-24T13:07:27;9.07;;;7.63;;
20008;SDS011;10165;42.662;23.260;2023-08-24T13:09:54;8.90;;;7.72;;
20008;SDS011;10165;42.662;23.260;2023-08-24T13:12:21;8.63;;;7.38;;
20008;SDS011;10165;42.662;23.260;2023-08-24T13:14:48;9.50;;;7.53;;
20008;SDS011;10165;42.662;23.260;2023-08-24T13:17:14;9.38;;;7.57;;
20008;SDS011;10165;42.662;23.260;2023-08-24T13:19:41;9.02;;;7.95;;
20008;SDS011;10165;42.662;23.260;2023-08-24T13:22:08;12.35;;;8.15;;
20008;SDS011;10165;42.662;23.260;2023-08-24T13:24:35;13.35;;;8.15;;
20008;SDS011;10165;42.662;23.260;2023-08-24T13:27:01;9.88;;;7.82;;
20008;SDS011;10165;42.662;23.260;2023-08-24T13:29:29;15.93;;;9.60;;
20008;SDS011;10165;42.662;23.260;2023-08-24T13:31:56;13.77;;;9.80;;
20008;SDS011;10165;42.662;23.260;2023-08-24T13:34:22;12.55;;;8.82;;
20008;SDS011;10165;42.662;23.260;2023-08-24T13:36:49;13.27;;;9.18;;
20008;SDS011;10165;42.662;23.260;2023-08-24T13:39:16;14.65;;;9.30;;
20008;SDS011;10165;42.662;23.260;2023-08-24T13:41:43;17.00;;;9.25;;
20008;SDS011;10165;42.662;23.260;2023-08-24T13:44:10;15.88;;;8.50;;
20008;SDS011;10165;42.662;23.260;2023-08-24T13:46:36;13.55;;;9.10;;
20008;SDS011;10165;42.662;23.260;2023-08-24T13:49:03;19.50;;;9.35;;
20008;SDS011;10165;42.662;23.260;2023-08-24T13:51:30;12.60;;;8.27;;
20008;SDS011;10165;42.662;23.260;2023-08-24T13:53:56;14.90;;;8.85;;
20008;SDS011;10165;42.662;23.260;2023-08-24T13:56:23;10.02;;;7.57;;
20008;SDS011;10165;42.662;23.260;2023-08-24T13:58:51;12.13;;;8.68;;
20008;SDS011;10165;42.662;23.260;2023-08-24T14:01:18;16.00;;;9.40;;
20008;SDS011;10165;42.662;23.260;2023-08-24T14:03:44;14.32;;;9.40;;
20008;SDS011;10165;42.662;23.260;2023-08-24T14:06:11;13.60;;;9.18;;
20008;SDS011;10165;42.662;23.260;2023-08-24T14:08:38;14.02;;;8.68;;
20008;SDS011;10165;42.662;23.260;2023-08-24T14:11:04;11.77;;;9.23;;
20008;SDS011;10165;42.662;23.260;2023-08-24T14:13:31;14.43;;;9.25;;
20008;SDS011;10165;42.662;23.260;2023-08-24T14:15:58;13.65;;;8.68;;
20008;SDS011;10165;42.662;23.260;2023-08-24T14:18:24;11.07;;;8.35;;
20008;SDS011;10165;42.662;23.260;2023-08-24T14:20:51;11.45;;;8.15;;
20008;SDS011;10165;42.662;23.260;2023-08-24T14:23:18;11.75;;;8.95;;
20008;SDS011;10165;42.662;23.260;2023-08-24T14:25:45;12.85;;;9.23;;
20008;SDS011;10165;42.662;23.260;2023-08-24T14:28:13;10.07;;;8.45;;
20008;SDS011;10165;42.662;23.260;2023-08-24T14:30:41;11.02;;;8.32;;
20008;SDS011;10165;42.662;23.260;2023-08-24T14:33:07;11.18;;;7.43;;
20008;SDS011;10165;42.662;23.260;2023-08-24T14:35:34;10.18;;;7.40;;
20008;SDS011;10165;42.662;23.260;2023-08-24T14:38:01;10.63;;;7.72;;
20008;SDS011;10165;42.662;23.260;2023-08-24T14:40:28;9.27;;;7.28;;
20008;SDS011;10165;42.662;23.260;2023-08-24T14:42:55;9.15;;;7.28;;
20008;SDS011;10165;42.662;23.260;2023-08-24T14:45:22;9.60;;;7.28;;
20008;SDS011;10165;42.662;23.260;2023-08-24T14:47:48;9.40;;;7.05;;
20008;SDS011;10165;42.662;23.260;2023-08-24T14:50:15;8.07;;;7.22;;